createdAt,value
2018-06-09T00:01:51.133Z,98.80
2018-06-09T00:06:45.711Z,98.50
2018-06-09T00:11:40.112Z,98.80
2018-06-09T00:16:34.545Z,99.00
2018-06-09T00:21:28.968Z,98.90
2018-06-09T00:26:23.408Z,98.50
2018-06-09T00:31:17.819Z,98.50
2018-06-09T00:41:06.532Z,98.80
2018-06-09T00:46:00.968Z,98.90
2018-06-09T00:50:55.342Z,98.50
2018-06-09T00:55:49.774Z,98.60
2018-06-09T01:00:44.203Z,98.80
2018-06-09T01:05:38.595Z,98.90
2018-06-09T01:10:32.989Z,98.70
2018-06-09T01:15:27.420Z,98.60
2018-06-09T01:20:21.860Z,98.80
2018-06-09T01:25:16.271Z,99.10
2018-06-09T01:30:10.711Z,99.40
2018-06-09T01:35:05.365Z,99.10
2018-06-09T01:39:59.796Z,98.70
2018-06-09T01:44:54.184Z,98.70
2018-06-09T01:49:48.615Z,98.90
2018-06-09T01:54:43.013Z,99.10
2018-06-09T01:59:37.424Z,99.60
2018-06-09T02:04:31.848Z,99.70
2018-06-09T02:09:26.296Z,99.60
2018-06-09T02:14:20.700Z,99.50
2018-06-09T02:24:09.344Z,99.80
2018-06-09T02:29:03.881Z,99.80
2018-06-09T02:33:58.360Z,99.50
2018-06-09T02:38:52.764Z,99.70
2018-06-09T02:43:47.217Z,99.50
2018-06-09T02:48:41.651Z,99.60
2018-06-09T02:53:36.068Z,99.70
2018-06-09T02:58:30.510Z,99.70
2018-06-09T03:03:24.919Z,99.80
2018-06-09T03:08:19.349Z,99.70
2018-06-09T03:13:13.769Z,99.90
2018-06-09T03:18:08.192Z,99.90
2018-06-09T03:23:02.729Z,99.90
2018-06-09T03:27:57.136Z,99.90
2018-06-09T03:32:51.556Z,99.90
2018-06-09T03:37:45.965Z,99.90
2018-06-09T03:42:40.367Z,99.90
2018-06-09T03:47:34.802Z,99.90
2018-06-09T03:52:29.227Z,99.90
2018-06-09T03:57:23.624Z,99.90
2018-06-09T04:02:18.233Z,99.90
2018-06-09T04:07:12.620Z,99.90
2018-06-09T04:12:07.041Z,99.90
2018-06-09T04:17:01.425Z,99.90
2018-06-09T04:21:55.845Z,99.90
2018-06-09T04:26:50.220Z,99.60
2018-06-09T04:31:44.624Z,98.80
2018-06-09T04:41:34.084Z,99.00
2018-06-09T04:46:28.500Z,99.00
2018-06-09T04:51:22.933Z,98.70
2018-06-09T04:56:17.404Z,98.10
2018-06-09T05:01:11.812Z,98.00
2018-06-09T05:06:07.756Z,97.90
2018-06-09T05:11:02.232Z,97.60
2018-06-09T05:15:56.650Z,97.40
2018-06-09T05:20:51.082Z,96.80
2018-06-09T05:25:45.529Z,96.20
2018-06-09T05:30:39.961Z,95.70
2018-06-09T05:35:34.409Z,95.10
2018-06-09T05:40:28.796Z,93.30
2018-06-09T05:45:23.225Z,87.90
2018-06-09T05:50:17.817Z,82.60
2018-06-09T05:55:12.382Z,81.00
2018-06-09T06:00:07.230Z,82.10
2018-06-09T06:05:01.660Z,82.00
2018-06-09T06:09:56.075Z,84.70
2018-06-09T06:14:50.509Z,87.30
2018-06-09T06:19:44.925Z,88.10
2018-06-09T06:24:39.388Z,89.20
2018-06-09T06:29:33.882Z,90.60
2018-06-09T06:34:28.368Z,91.30
2018-06-09T06:39:22.820Z,91.80
2018-06-09T06:44:17.296Z,91.00
2018-06-09T06:49:11.748Z,90.30
2018-06-09T06:54:06.263Z,90.00
2018-06-09T06:59:00.726Z,88.90
2018-06-09T07:03:55.175Z,89.90
2018-06-09T07:08:49.604Z,90.60
2018-06-09T07:13:44.065Z,90.40
2018-06-09T07:18:38.492Z,89.90
2018-06-09T07:23:32.907Z,88.80
2018-06-09T07:28:27.311Z,88.90
2018-06-09T07:33:21.824Z,88.30
2018-06-09T07:38:16.270Z,88.80
2018-06-09T07:43:10.715Z,89.40
2018-06-09T07:48:05.234Z,89.50
2018-06-09T07:52:59.736Z,88.60
2018-06-09T07:57:54.167Z,84.90
2018-06-09T08:02:48.619Z,82.70
2018-06-09T08:07:43.073Z,82.70
2018-06-09T08:12:37.528Z,83.50
2018-06-09T08:17:31.955Z,80.90
2018-06-09T08:22:26.390Z,80.60
2018-06-09T08:27:20.845Z,79.80
2018-06-09T08:32:15.304Z,78.40
2018-06-09T08:37:09.729Z,78.50
2018-06-09T08:42:04.212Z,75.20
2018-06-09T08:46:58.614Z,76.10
2018-06-09T08:51:53.021Z,75.60
2018-06-09T08:56:47.469Z,73.00
2018-06-09T09:01:41.943Z,74.20
2018-06-09T09:06:36.378Z,72.40
2018-06-09T09:11:30.841Z,73.50
2018-06-09T09:16:25.422Z,73.40
2018-06-09T09:21:19.832Z,74.00
2018-06-09T09:26:14.292Z,75.10
2018-06-09T09:31:08.672Z,76.80
2018-06-09T09:36:03.111Z,77.50
2018-06-09T09:40:57.525Z,77.40
2018-06-09T09:45:51.940Z,78.50
2018-06-09T09:50:46.412Z,78.50
2018-06-09T09:55:40.842Z,75.80
2018-06-09T10:00:37.315Z,75.70
2018-06-09T10:05:31.771Z,76.00
2018-06-09T10:10:26.212Z,75.20
2018-06-09T10:15:20.663Z,74.80
2018-06-09T10:20:15.101Z,72.30
2018-06-09T10:25:09.549Z,70.20
2018-06-09T10:30:04.029Z,68.00
2018-06-09T10:34:58.445Z,65.80
2018-06-09T10:39:52.846Z,63.60
2018-06-09T10:44:47.283Z,63.20
2018-06-09T10:49:41.722Z,63.10
2018-06-09T10:54:36.216Z,62.60
2018-06-09T10:59:30.660Z,60.10
2018-06-09T11:04:25.161Z,59.80
2018-06-09T11:09:19.571Z,60.10
2018-06-09T11:14:13.990Z,59.60
2018-06-09T11:19:08.381Z,60.30
2018-06-09T11:24:02.827Z,59.50
2018-06-09T11:28:57.316Z,59.10
2018-06-09T11:38:45.884Z,58.40
2018-06-09T11:43:40.295Z,57.30
2018-06-09T11:48:34.692Z,56.90
2018-06-09T11:53:29.111Z,55.30
2018-06-09T11:58:23.525Z,57.80
2018-06-09T12:03:17.996Z,58.00
2018-06-09T12:08:12.408Z,58.00
2018-06-09T12:13:07.105Z,57.00
2018-06-09T12:18:01.543Z,57.90
2018-06-09T12:22:56.034Z,58.00
2018-06-09T12:27:50.482Z,57.40
2018-06-09T12:32:45.957Z,58.20
2018-06-09T12:37:40.358Z,58.60
2018-06-09T12:42:34.822Z,57.90
2018-06-09T12:47:29.288Z,58.50
2018-06-09T12:52:23.792Z,59.00
2018-06-09T12:57:18.218Z,60.10
2018-06-09T13:02:12.647Z,58.40
2018-06-09T13:07:07.566Z,59.50
2018-06-09T13:12:02.028Z,58.30
2018-06-09T13:16:56.441Z,58.80
2018-06-09T13:21:51.513Z,56.30
2018-06-09T13:26:46.006Z,55.00
2018-06-09T13:31:40.440Z,54.10
2018-06-09T13:36:34.898Z,55.90
2018-06-09T13:41:29.345Z,56.00
2018-06-09T13:46:23.785Z,54.10
2018-06-09T13:56:12.396Z,51.90
2018-06-09T14:01:07.049Z,51.70
2018-06-09T14:06:01.466Z,53.20
2018-06-09T14:10:55.955Z,53.30
2018-06-09T14:15:50.360Z,53.60
2018-06-09T14:20:44.784Z,54.80
2018-06-09T14:25:39.200Z,55.10
2018-06-09T14:30:33.629Z,53.60
2018-06-09T14:35:28.064Z,52.80
2018-06-09T14:40:22.497Z,53.30
2018-06-09T14:45:17.068Z,52.20
2018-06-09T14:50:11.564Z,51.10
2018-06-09T14:55:06.060Z,50.30
2018-06-09T15:00:00.572Z,49.40
2018-06-09T15:04:55.067Z,48.80
2018-06-09T15:14:43.661Z,48.90
2018-06-09T15:19:38.153Z,50.30
2018-06-09T15:24:32.521Z,50.70
2018-06-09T15:29:26.977Z,52.30
2018-06-09T15:34:21.393Z,52.70
2018-06-09T15:39:15.854Z,54.00
2018-06-09T15:44:10.296Z,54.80
2018-06-09T15:49:04.815Z,55.60
2018-06-09T15:53:59.235Z,53.60
2018-06-09T15:58:53.732Z,53.50
2018-06-09T16:03:48.181Z,53.90
2018-06-09T16:08:42.646Z,55.00
2018-06-09T16:13:37.066Z,54.60
2018-06-09T16:18:31.542Z,53.80
2018-06-09T16:23:26.053Z,53.80
2018-06-09T16:28:20.498Z,53.20
2018-06-09T16:33:14.928Z,55.70
2018-06-09T16:43:03.973Z,60.70
2018-06-09T16:47:58.403Z,62.90
2018-06-09T16:52:52.893Z,65.30
2018-06-09T16:57:47.404Z,65.30
2018-06-09T17:02:41.816Z,66.70
2018-06-09T17:07:37.046Z,65.50
2018-06-09T17:12:31.461Z,65.90
2018-06-09T17:17:25.898Z,66.80
2018-06-09T17:22:20.345Z,68.30
2018-06-09T17:27:14.771Z,69.10
2018-06-09T17:32:09.254Z,69.80
2018-06-09T17:37:03.958Z,69.50
2018-06-09T17:41:58.452Z,70.70
2018-06-09T17:46:52.901Z,68.80
2018-06-09T17:51:47.364Z,67.70
2018-06-09T17:56:41.852Z,68.80
2018-06-09T18:01:36.255Z,69.10
2018-06-09T18:06:30.724Z,69.50
2018-06-09T18:11:25.213Z,70.20
2018-06-09T18:16:19.736Z,71.10
2018-06-09T18:21:14.246Z,71.20
2018-06-09T18:26:08.822Z,72.30
2018-06-09T18:31:03.315Z,72.90
2018-06-09T18:35:57.728Z,74.00
2018-06-09T18:40:52.178Z,75.10
2018-06-09T18:45:47.579Z,76.10
2018-06-09T18:50:42.208Z,76.30
2018-06-09T18:55:36.736Z,76.30
2018-06-09T19:00:31.179Z,77.30
2018-06-09T19:05:25.711Z,76.40
2018-06-09T19:10:20.163Z,74.20
2018-06-09T19:15:14.636Z,75.50
2018-06-09T19:20:09.342Z,77.10
2018-06-09T19:25:04.072Z,78.40
2018-06-09T19:29:58.752Z,79.50
2018-06-09T19:34:53.227Z,80.10
2018-06-09T19:39:47.674Z,80.40
2018-06-09T19:44:42.119Z,81.20
2018-06-09T19:49:36.565Z,81.60
2018-06-09T19:54:31.044Z,81.60
2018-06-09T19:59:25.468Z,82.50
2018-06-09T20:04:19.922Z,83.10
2018-06-09T20:09:14.381Z,83.30
2018-06-09T20:14:08.989Z,84.20
2018-06-09T20:19:03.602Z,84.60
2018-06-09T20:23:58.086Z,85.00
2018-06-09T20:28:53.150Z,85.70
2018-06-09T20:35:17.090Z,86.70
2018-06-09T20:40:11.605Z,86.80
2018-06-09T20:45:06.350Z,87.10
2018-06-09T20:50:00.993Z,87.60
2018-06-09T20:54:55.511Z,87.70
2018-06-09T20:59:50.143Z,88.00
2018-06-09T21:04:45.652Z,88.20
2018-06-09T21:09:40.376Z,87.90
2018-06-09T21:14:35.012Z,88.60
2018-06-09T21:19:29.648Z,88.90
2018-06-09T21:24:24.883Z,89.30
2018-06-09T21:29:24.761Z,89.80
2018-06-09T21:34:41.128Z,90.20
2018-06-09T21:41:46.224Z,90.30
2018-06-09T21:46:44.766Z,90.50
2018-06-09T21:51:39.300Z,90.70
2018-06-09T21:56:33.817Z,91.10
2018-06-09T22:01:28.247Z,91.10
2018-06-09T22:11:16.869Z,91.60
2018-06-09T22:16:12.088Z,91.50
2018-06-09T22:21:06.587Z,91.60
2018-06-09T22:26:01.081Z,91.70
2018-06-09T22:30:55.518Z,91.70
2018-06-09T22:35:50.094Z,91.80
2018-06-09T22:40:44.518Z,91.50
2018-06-09T22:45:38.929Z,91.50
2018-06-09T22:50:33.408Z,91.80
2018-06-09T22:55:27.908Z,92.10
2018-06-09T23:00:37.077Z,92.20
2018-06-09T23:05:31.614Z,92.50
2018-06-09T23:10:26.204Z,92.90
2018-06-09T23:15:21.139Z,93.20
2018-06-09T23:20:15.746Z,93.20
2018-06-09T23:25:10.243Z,93.30
2018-06-09T23:30:04.781Z,93.70
2018-06-09T23:34:59.273Z,93.90
2018-06-09T23:39:53.807Z,94.50
2018-06-09T23:44:48.388Z,94.70
2018-06-09T23:49:42.806Z,95.00
2018-06-09T23:54:37.228Z,94.80
2018-06-09T23:59:31.905Z,94.90
